Time;durP1;ratioP1;P1;durP2;ratioP2;P2;SDS_P1;SDS_P2;PMS_P1;PMS_P2;Temp;Humidity;BMP_temperature;BMP_pressure;BME280_temperature;BME280_humidity;BME280_pressure;Samples;Min_cycle;Max_cycle;Signal;HPM_P1;HPM_P2
2021/04/30 04:02:21;;;;;;;42.22;28.70;;;8.00;99.90;;;;;;5099516;23;20252;-69
2021/04/30 04:04:47;;;;;;;39.85;27.92;;;8.00;99.90;;;;;;4955312;29;20661;-68
2021/04/30 04:07:13;;;;;;;42.83;28.88;;;8.00;99.90;;;;;;4955365;28;20225;-68
2021/04/30 04:09:39;;;;;;;44.63;29.75;;;8.10;99.90;;;;;;4955631;29;20231;-68
2021/04/30 04:12:07;;;;;;;44.47;30.15;;;8.10;99.90;;;;;;4955088;29;20268;-69
2021/04/30 04:14:33;;;;;;;43.03;30.33;;;8.10;99.90;;;;;;4955260;28;20229;-68
2021/04/30 04:16:59;;;;;;;39.55;27.70;;;8.10;99.90;;;;;;4955072;29;20205;-68
2021/04/30 04:19:26;;;;;;;42.38;29.35;;;8.10;99.90;;;;;;4955703;29;20296;-68
2021/04/30 04:21:53;;;;;;;42.20;30.05;;;8.10;99.90;;;;;;4955442;29;20236;-68
2021/04/30 04:24:19;;;;;;;38.90;30.65;;;8.10;99.90;;;;;;4954987;29;20209;-69
2021/04/30 04:26:45;;;;;;;42.28;30.02;;;8.10;99.90;;;;;;4955054;29;20669;-69
2021/04/30 04:29:11;;;;;;;42.25;29.38;;;8.00;99.90;;;;;;4955081;29;20220;-69
2021/04/30 04:31:37;;;;;;;41.65;27.90;;;8.10;99.90;;;;;;4954493;29;20656;-69
2021/04/30 04:34:04;;;;;;;39.45;26.50;;;8.10;99.90;;;;;;4955265;29;20521;-72
2021/04/30 04:36:32;;;;;;;42.65;27.45;;;8.10;99.90;;;;;;4955044;29;20666;-72
2021/04/30 04:38:59;;;;;;;41.50;29.50;;;8.10;99.90;;;;;;4955233;28;20209;-71
2021/04/30 04:41:25;;;;;;;37.25;26.38;;;8.10;99.90;;;;;;4954889;29;20276;-73
2021/04/30 04:43:51;;;;;;;37.60;25.70;;;8.10;99.90;;;;;;4954554;28;20608;-73
2021/04/30 04:46:17;;;;;;;41.40;27.30;;;8.20;99.90;;;;;;4954516;29;20260;-72
2021/04/30 04:48:44;;;;;;;32.63;24.60;;;8.20;99.90;;;;;;4955096;29;20213;-72
2021/04/30 04:51:10;;;;;;;33.90;24.15;;;8.20;99.90;;;;;;4954657;29;20603;-73
2021/04/30 04:53:37;;;;;;;35.25;23.83;;;8.20;99.90;;;;;;4954670;29;20229;-71
2021/04/30 04:56:03;;;;;;;36.40;24.70;;;8.20;99.90;;;;;;4954632;29;20241;-72
2021/04/30 04:58:30;;;;;;;34.83;23.60;;;8.20;99.90;;;;;;4954300;29;20255;-72
2021/04/30 05:00:56;;;;;;;29.27;23.00;;;8.20;99.90;;;;;;4954138;29;20323;-71
2021/04/30 05:03:22;;;;;;;28.33;22.80;;;8.20;99.90;;;;;;4954642;29;20209;-73
2021/04/30 05:05:48;;;;;;;28.92;21.52;;;8.30;99.90;;;;;;4954824;28;20255;-72
2021/04/30 05:08:14;;;;;;;29.20;22.30;;;8.30;99.90;;;;;;4953397;29;20216;-72
2021/04/30 05:10:42;;;;;;;28.55;22.45;;;8.40;99.90;;;;;;4953927;28;20232;-73
2021/04/30 05:13:08;;;;;;;29.83;23.60;;;8.40;99.90;;;;;;4953755;29;20704;-72
2021/04/30 05:15:34;;;;;;;29.63;22.10;;;8.40;99.90;;;;;;4954163;29;20736;-73
2021/04/30 05:18:00;;;;;;;26.23;20.30;;;8.40;99.90;;;;;;4954838;29;20217;-72
2021/04/30 05:20:26;;;;;;;27.60;20.45;;;8.50;99.90;;;;;;4954609;29;20293;-72
2021/04/30 05:22:54;;;;;;;28.88;20.05;;;8.40;99.90;;;;;;4954514;29;20589;-72
2021/04/30 05:25:20;;;;;;;30.38;19.90;;;8.40;99.90;;;;;;4954771;29;20205;-71
2021/04/30 05:27:47;;;;;;;28.55;19.50;;;8.40;99.90;;;;;;4954449;29;20213;-72
2021/04/30 05:30:14;;;;;;;22.52;20.05;;;8.40;99.90;;;;;;4954282;29;20220;-73
2021/04/30 05:32:40;;;;;;;22.60;17.98;;;8.40;99.90;;;;;;4954062;29;20239;-73
2021/04/30 05:35:08;;;;;;;22.83;18.55;;;8.40;99.90;;;;;;4954622;29;20225;-73
2021/04/30 05:37:34;;;;;;;21.15;18.08;;;8.40;99.90;;;;;;4954284;29;20688;-73
2021/04/30 05:40:00;;;;;;;27.02;20.92;;;8.50;99.90;;;;;;4954503;29;20213;-75
2021/04/30 05:42:28;;;;;;;23.13;18.50;;;8.40;99.90;;;;;;4953839;29;20251;-73
2021/04/30 05:44:55;;;;;;;26.65;20.35;;;8.50;99.90;;;;;;4954212;29;20625;-73
2021/04/30 05:47:22;;;;;;;23.05;18.67;;;8.50;99.90;;;;;;4954196;29;20272;-73
2021/04/30 05:49:48;;;;;;;21.60;18.30;;;8.50;99.90;;;;;;4954526;29;20209;-69
2021/04/30 05:52:14;;;;;;;20.23;16.90;;;8.50;99.90;;;;;;4954384;29;20324;-70
2021/04/30 05:54:42;;;;;;;21.15;17.75;;;8.50;99.90;;;;;;4954242;29;20324;-69
2021/04/30 05:57:08;;;;;;;21.15;16.83;;;8.60;99.90;;;;;;4954552;29;20543;-70
2021/04/30 05:59:34;;;;;;;24.33;18.45;;;8.60;99.90;;;;;;4954578;29;20216;-73
2021/04/30 06:02:01;;;;;;;19.85;17.13;;;8.60;99.90;;;;;;4953813;29;20241;-73
2021/04/30 06:04:28;;;;;;;21.85;17.70;;;8.60;99.90;;;;;;4954465;29;20285;-74
2021/04/30 06:06:55;;;;;;;19.58;16.52;;;8.60;99.90;;;;;;4954216;28;20302;-74
2021/04/30 06:09:21;;;;;;;20.42;16.58;;;8.50;99.90;;;;;;4954236;29;20209;-74
2021/04/30 06:11:48;;;;;;;17.42;15.02;;;8.50;99.90;;;;;;4954066;29;20244;-74
2021/04/30 06:14:14;;;;;;;18.45;15.63;;;8.50;99.90;;;;;;4953997;29;20217;-74
2021/04/30 06:16:41;;;;;;;18.95;16.15;;;8.50;99.90;;;;;;4954432;29;20217;-74
2021/04/30 06:19:08;;;;;;;18.33;16.15;;;8.50;99.90;;;;;;4955216;28;20217;-70
2021/04/30 06:21:34;;;;;;;22.38;17.13;;;8.60;99.90;;;;;;4956204;28;20229;-70
2021/04/30 06:24:01;;;;;;;18.90;15.77;;;8.70;99.90;;;;;;4957810;29;20220;-70
2021/04/30 06:26:27;;;;;;;19.23;16.23;;;8.70;99.90;;;;;;4958136;29;20232;-69
2021/04/30 06:28:54;;;;;;;20.83;17.48;;;8.80;99.90;;;;;;4957508;29;20217;-69
2021/04/30 06:31:20;;;;;;;20.85;16.02;;;8.80;99.90;;;;;;4957453;29;20249;-70
2021/04/30 06:33:46;;;;;;;19.88;16.20;;;8.90;99.90;;;;;;4958658;29;20240;-70
2021/04/30 06:36:13;;;;;;;22.20;17.05;;;8.90;99.90;;;;;;4958740;29;20256;-70
2021/04/30 06:38:39;;;;;;;17.45;15.57;;;8.90;99.90;;;;;;4960278;29;20521;-70
2021/04/30 06:41:06;;;;;;;16.42;14.73;;;8.90;99.90;;;;;;4960641;29;20680;-71
2021/04/30 06:43:32;;;;;;;19.33;15.45;;;8.80;99.90;;;;;;4959385;29;20209;-70
2021/04/30 06:45:58;;;;;;;19.50;16.15;;;8.80;99.90;;;;;;4960574;29;20209;-70
2021/04/30 06:48:24;;;;;;;17.75;15.73;;;8.80;99.90;;;;;;4962796;29;20217;-70
2021/04/30 06:50:51;;;;;;;20.42;16.33;;;8.80;99.90;;;;;;4963613;29;20229;-71
2021/04/30 06:53:18;;;;;;;40.15;17.45;;;8.70;99.90;;;;;;4963020;29;20228;-70
2021/04/30 06:55:45;;;;;;;17.35;15.10;;;8.70;99.90;;;;;;4965076;29;20245;-70
2021/04/30 06:58:11;;;;;;;20.48;16.60;;;8.70;99.90;;;;;;4964675;29;20662;-70
2021/04/30 07:00:37;;;;;;;21.58;15.60;;;8.60;99.90;;;;;;4963585;28;20233;-70
2021/04/30 07:03:03;;;;;;;20.38;16.02;;;8.60;99.90;;;;;;4963101;29;20209;-69
2021/04/30 07:05:30;;;;;;;21.38;16.08;;;8.60;99.90;;;;;;4957777;29;20268;-69
2021/04/30 07:07:57;;;;;;;20.48;15.90;;;8.60;99.90;;;;;;4956762;28;20221;-70
2021/04/30 07:10:24;;;;;;;23.77;17.58;;;8.60;99.90;;;;;;4960672;29;20240;-70
2021/04/30 07:12:50;;;;;;;26.90;15.50;;;8.60;99.90;;;;;;4958342;29;20204;-69
2021/04/30 07:15:18;;;;;;;22.50;16.30;;;8.60;99.90;;;;;;4956798;29;20349;-69
2021/04/30 07:17:44;;;;;;;17.15;15.15;;;8.60;99.90;;;;;;4956213;29;20255;-69
2021/04/30 07:20:11;;;;;;;24.50;16.55;;;8.70;99.90;;;;;;4957658;29;20224;-73
2021/04/30 07:22:37;;;;;;;20.42;16.02;;;8.70;99.90;;;;;;4961089;29;20636;-73
2021/04/30 07:25:04;;;;;;;21.60;17.60;;;8.80;99.90;;;;;;4962652;29;20288;-74
2021/04/30 07:27:32;;;;;;;23.70;17.33;;;8.90;99.90;;;;;;4963112;28;20517;-70
2021/04/30 07:29:58;;;;;;;20.52;17.17;;;9.00;99.90;;;;;;4964458;29;20232;-70
2021/04/30 07:32:24;;;;;;;22.70;17.52;;;9.10;99.90;;;;;;4961923;28;20376;-73
2021/04/30 07:34:50;;;;;;;18.10;15.25;;;9.10;99.90;;;;;;4962755;29;20229;-72
2021/04/30 07:37:17;;;;;;;17.90;15.70;;;9.10;99.90;;;;;;4964128;29;20224;-73
2021/04/30 07:39:44;;;;;;;18.70;15.85;;;9.20;99.90;;;;;;4965331;29;20213;-73
2021/04/30 07:42:10;;;;;;;18.65;16.65;;;9.20;99.90;;;;;;4963735;29;20335;-74
2021/04/30 07:44:38;;;;;;;18.25;16.45;;;9.20;99.90;;;;;;4959445;29;20291;-75
2021/04/30 07:47:04;;;;;;;19.48;17.20;;;9.30;99.90;;;;;;4956781;29;20616;-74
2021/04/30 07:49:31;;;;;;;22.10;18.77;;;9.30;99.90;;;;;;4956385;29;20581;-74
2021/04/30 07:51:57;;;;;;;19.98;17.10;;;9.30;99.90;;;;;;4956414;29;20239;-73
2021/04/30 07:54:24;;;;;;;22.40;20.20;;;9.30;99.90;;;;;;4956025;29;20217;-74
2021/04/30 07:56:50;;;;;;;18.50;16.13;;;9.30;99.90;;;;;;4956545;29;20240;-74
2021/04/30 07:59:17;;;;;;;20.02;17.13;;;9.40;99.90;;;;;;4955771;29;20213;-74
2021/04/30 08:01:44;;;;;;;21.02;16.73;;;9.50;99.90;;;;;;4955098;28;20735;-74
2021/04/30 08:04:10;;;;;;;17.38;15.40;;;9.60;99.90;;;;;;4955347;29;20209;-74
2021/04/30 08:06:38;;;;;;;17.75;15.65;;;9.60;99.90;;;;;;4955599;28;20213;-74
2021/04/30 08:09:05;;;;;;;16.58;14.93;;;9.60;99.90;;;;;;4956114;28;20501;-74
2021/04/30 08:11:31;;;;;;;17.02;15.43;;;9.80;99.90;;;;;;4955635;29;20662;-74
2021/04/30 08:13:57;;;;;;;17.23;15.07;;;9.90;99.90;;;;;;4955178;29;20213;-75
2021/04/30 08:16:24;;;;;;;17.00;15.20;;;10.00;99.90;;;;;;4955286;29;20225;-71
2021/04/30 08:18:51;;;;;;;16.00;14.50;;;10.00;99.90;;;;;;4955182;29;20212;-70
2021/04/30 08:21:17;;;;;;;14.75;13.45;;;10.00;99.90;;;;;;4956156;29;20605;-71
2021/04/30 08:23:43;;;;;;;16.13;14.52;;;10.10;99.90;;;;;;4959306;29;20213;-74
2021/04/30 08:26:09;;;;;;;15.45;14.13;;;10.20;99.90;;;;;;4965563;29;20205;-74
2021/04/30 08:28:35;;;;;;;16.35;14.85;;;10.30;99.90;;;;;;4962358;29;20611;-71
2021/04/30 08:31:02;;;;;;;15.55;13.55;;;10.40;99.90;;;;;;4954866;29;20689;-71
2021/04/30 08:33:28;;;;;;;14.05;12.70;;;10.40;99.90;;;;;;4954970;29;20216;-71
2021/04/30 08:35:55;;;;;;;14.23;12.93;;;10.50;99.90;;;;;;4955095;29;20229;-74
2021/04/30 08:38:21;;;;;;;12.43;11.40;;;10.60;99.90;;;;;;4955261;29;20638;-70
2021/04/30 08:40:48;;;;;;;13.40;12.10;;;10.60;99.90;;;;;;4955267;29;20259;-70
2021/04/30 08:43:16;;;;;;;14.70;13.40;;;10.60;99.90;;;;;;4955941;29;20220;-70
2021/04/30 08:45:43;;;;;;;13.90;12.50;;;10.70;99.90;;;;;;4955982;28;20741;-70
2021/04/30 08:48:11;;;;;;;14.13;12.93;;;10.80;99.90;;;;;;4956955;29;20209;-70
2021/04/30 08:50:37;;;;;;;14.10;12.68;;;10.90;99.90;;;;;;4957425;29;20232;-70
2021/04/30 08:53:05;;;;;;;14.80;13.20;;;10.80;99.90;;;;;;4957008;28;20559;-70
2021/04/30 08:55:32;;;;;;;14.68;12.93;;;10.60;99.90;;;;;;4956603;29;20323;-70
2021/04/30 08:57:58;;;;;;;18.73;15.27;;;10.50;99.90;;;;;;4956000;29;20224;-72
2021/04/30 09:00:26;;;;;;;15.88;14.23;;;10.50;99.90;;;;;;4955994;29;20300;-71
2021/04/30 09:02:53;;;;;;;26.65;17.15;;;10.30;99.90;;;;;;4955779;29;20300;-71
2021/04/30 09:05:24;;;;;;;18.95;14.95;;;10.10;99.90;;;;;;4955592;29;20205;-71
2021/04/30 09:07:53;;;;;;;17.88;13.20;;;10.10;99.90;;;;;;4955422;28;20239;-70
2021/04/30 09:10:21;;;;;;;26.58;16.10;;;10.00;99.90;;;;;;4954707;29;20240;-74
2021/04/30 09:13:06;;;;;;;19.63;13.75;;;10.00;99.90;;;;;;4954685;28;20224;-73
2021/04/30 09:15:33;;;;;;;15.38;13.73;;;10.00;99.90;;;;;;4954142;29;20316;-73
2021/04/30 09:18:24;;;;;;;15.32;12.57;;;10.00;99.90;;;;;;4954765;29;20220;-73
2021/04/30 09:20:51;;;;;;;11.68;10.68;;;10.10;99.90;;;;;;4954706;29;20331;-70
2021/04/30 09:23:34;;;;;;;13.57;12.38;;;10.00;99.90;;;;;;4954754;29;20299;-70
2021/04/30 09:26:02;;;;;;;14.45;13.02;;;10.20;99.90;;;;;;4955303;29;20604;-71
2021/04/30 09:28:28;;;;;;;12.88;11.65;;;10.30;99.90;;;;;;4955168;29;20223;-69
2021/04/30 09:30:55;;;;;;;14.23;12.52;;;10.40;99.90;;;;;;4954583;29;20303;-69
2021/04/30 09:33:22;;;;;;;13.25;12.05;;;10.50;99.90;;;;;;4955675;29;20221;-70
2021/04/30 09:35:49;;;;;;;12.68;11.55;;;10.60;99.90;;;;;;4955095;29;20240;-70
2021/04/30 09:38:23;;;;;;;13.45;12.15;;;10.60;99.90;;;;;;4955782;29;20680;-70
2021/04/30 09:40:50;;;;;;;13.73;11.63;;;10.60;99.90;;;;;;4956526;29;20264;-70
2021/04/30 09:43:19;;;;;;;12.90;11.60;;;10.60;99.90;;;;;;4957299;29;20372;-71
2021/04/30 09:45:46;;;;;;;14.60;13.15;;;10.60;99.90;;;;;;4955856;29;20209;-71
2021/04/30 09:48:13;;;;;;;13.90;12.70;;;10.70;99.90;;;;;;4955084;29;20581;-71
2021/04/30 09:50:41;;;;;;;14.32;13.02;;;10.70;99.90;;;;;;4956001;29;20225;-71
2021/04/30 09:53:09;;;;;;;14.35;13.05;;;10.70;99.90;;;;;;4955285;29;20213;-71
2021/04/30 09:55:44;;;;;;;15.55;14.02;;;10.80;99.90;;;;;;4955834;28;20229;-71
2021/04/30 09:58:15;;;;;;;13.10;11.90;;;11.10;99.90;;;;;;4959482;29;20208;-71
2021/04/30 10:00:42;;;;;;;12.18;11.07;;;11.20;99.90;;;;;;4959651;29;20241;-74
2021/04/30 10:03:17;;;;;;;14.05;12.77;;;11.40;99.90;;;;;;4961954;29;20752;-74
2021/04/30 10:06:04;;;;;;;12.82;11.70;;;11.50;99.90;;;;;;4958857;29;20212;-74
2021/04/30 10:08:32;;;;;;;11.65;10.65;;;11.50;99.90;;;;;;4957960;28;20217;-75
2021/04/30 10:10:58;;;;;;;14.05;12.75;;;11.70;99.90;;;;;;4957793;29;20236;-74
2021/04/30 10:13:25;;;;;;;11.53;10.63;;;11.90;99.90;;;;;;4958183;29;20216;-71
2021/04/30 10:15:52;;;;;;;10.75;9.95;;;12.00;99.90;;;;;;4958600;29;20877;-70
2021/04/30 10:18:18;;;;;;;10.07;9.37;;;12.00;99.90;;;;;;4958492;29;20212;-70
2021/04/30 10:20:45;;;;;;;10.00;9.20;;;12.20;99.90;;;;;;4958930;29;20610;-70
2021/04/30 10:23:17;;;;;;;10.57;9.80;;;12.30;99.90;;;;;;4958279;29;20857;-71
2021/04/30 10:25:46;;;;;;;9.88;9.18;;;12.20;99.90;;;;;;4958571;29;20534;-71
2021/04/30 10:28:14;;;;;;;10.63;9.75;;;12.10;99.90;;;;;;4958192;29;20205;-71
2021/04/30 10:30:45;;;;;;;11.55;10.65;;;12.10;99.90;;;;;;4957915;29;20600;-71
2021/04/30 10:33:18;;;;;;;10.55;9.63;;;12.00;99.90;;;;;;4957557;29;20272;-70
2021/04/30 10:35:49;;;;;;;10.75;9.85;;;12.00;99.90;;;;;;4957522;29;20263;-70
2021/04/30 10:38:18;;;;;;;9.90;9.02;;;11.90;99.90;;;;;;4957250;29;20205;-70
2021/04/30 10:40:57;;;;;;;10.65;9.70;;;11.90;99.90;;;;;;4957260;29;20566;-74
2021/04/30 10:43:24;;;;;;;8.65;7.97;;;11.80;99.90;;;;;;4956742;28;20213;-74
2021/04/30 10:46:23;;;;;;;9.32;8.63;;;11.90;99.90;;;;;;4957164;29;20205;-71
2021/04/30 10:49:16;;;;;;;9.13;8.52;;;12.00;99.90;;;;;;4950303;28;20220;-70
2021/04/30 10:52:03;;;;;;;9.55;8.88;;;12.20;99.90;;;;;;4957417;28;20229;-70
2021/04/30 10:54:31;;;;;;;9.73;9.00;;;12.50;99.90;;;;;;4956901;28;20209;-69
2021/04/30 10:56:59;;;;;;;8.60;8.07;;;12.50;99.90;;;;;;4956479;29;20499;-69
2021/04/30 10:59:26;;;;;;;8.60;8.00;;;12.40;99.90;;;;;;4956635;29;20476;-69
2021/04/30 11:01:56;;;;;;;9.18;8.57;;;12.40;99.90;;;;;;4956036;29;20503;-69
2021/04/30 11:04:23;;;;;;;9.57;8.87;;;12.40;99.90;;;;;;4956858;29;20296;-70
2021/04/30 11:06:52;;;;;;;9.87;9.17;;;12.70;99.90;;;;;;4956181;28;20487;-70
2021/04/30 11:09:31;;;;;;;10.17;9.40;;;13.00;99.90;;;;;;4956221;29;20496;-70
2021/04/30 11:12:00;;;;;;;9.87;9.17;;;13.30;99.90;;;;;;4956359;29;21031;-70
2021/04/30 11:14:32;;;;;;;10.20;9.40;;;13.50;99.90;;;;;;4956298;29;20472;-70
2021/04/30 11:17:00;;;;;;;10.43;9.73;;;13.50;99.90;;;;;;4956037;29;20484;-69
2021/04/30 11:19:28;;;;;;;10.63;9.83;;;13.50;99.90;;;;;;4956679;29;20555;-69
2021/04/30 11:21:57;;;;;;;10.03;9.33;;;13.60;99.90;;;;;;4956287;29;20512;-69
2021/04/30 11:24:40;;;;;;;10.10;9.23;;;13.30;99.90;;;;;;4956192;29;20531;-69
2021/04/30 11:27:36;;;;;;;11.17;10.37;;;13.10;99.90;;;;;;4956487;29;20556;-69
2021/04/30 11:30:25;;;;;;;10.30;9.50;;;13.00;99.90;;;;;;4956072;29;20472;-69
2021/04/30 11:33:00;;;;;;;10.60;9.80;;;12.80;99.90;;;;;;4956601;29;20474;-70
2021/04/30 11:35:29;;;;;;;10.87;9.97;;;12.60;99.90;;;;;;4956569;28;20499;-70
2021/04/30 11:37:56;;;;;;;9.10;8.40;;;12.70;99.90;;;;;;4956518;29;20464;-70
2021/04/30 11:40:24;;;;;;;10.57;9.77;;;12.80;99.90;;;;;;4956271;29;20488;-70
2021/04/30 11:43:06;;;;;;;9.97;9.17;;;12.90;99.90;;;;;;4956038;29;20473;-68
2021/04/30 11:45:36;;;;;;;9.73;9.03;;;13.00;99.90;;;;;;4954126;28;20468;-71
2021/04/30 11:48:03;;;;;;;9.73;9.03;;;13.00;99.90;;;;;;4955726;29;20472;-69
2021/04/30 11:50:31;;;;;;;9.80;9.10;;;13.10;99.90;;;;;;4956128;29;20975;-70
2021/04/30 11:52:58;;;;;;;10.50;9.60;;;13.20;99.90;;;;;;4955747;29;20473;-70
2021/04/30 11:55:24;;;;;;;10.60;9.80;;;13.10;99.90;;;;;;4955828;29;20849;-72
2021/04/30 11:57:53;;;;;;;10.13;9.40;;;13.00;99.90;;;;;;4956868;29;20492;-70
2021/04/30 12:00:22;;;;;;;11.77;10.77;;;13.00;99.90;;;;;;4956204;29;20469;-70
2021/04/30 12:03:08;;;;;;;9.60;9.00;;;13.20;99.90;;;;;;4956486;28;20468;-70
2021/04/30 12:05:35;;;;;;;10.53;9.63;;;13.30;99.90;;;;;;4956410;28;20460;-70
2021/04/30 12:08:02;;;;;;;10.27;9.37;;;13.30;99.90;;;;;;4956926;28;20476;-70
2021/04/30 12:10:30;;;;;;;9.43;8.83;;;13.40;99.90;;;;;;4956682;29;20485;-70
2021/04/30 12:12:57;;;;;;;11.10;10.27;;;13.40;99.90;;;;;;4955991;29;20464;-70
2021/04/30 12:15:32;;;;;;;10.07;9.37;;;13.50;99.90;;;;;;4955931;29;20485;-70
2021/04/30 12:17:58;;;;;;;11.83;11.00;;;13.40;99.90;;;;;;4955739;29;20467;-69
2021/04/30 12:20:26;;;;;;;11.43;10.63;;;13.50;99.90;;;;;;4955258;28;20468;-70
2021/04/30 12:22:56;;;;;;;11.23;10.13;;;13.50;99.90;;;;;;4957847;29;20821;-73
2021/04/30 12:25:28;;;;;;;10.97;10.10;;;13.60;99.90;;;;;;4957960;29;20469;-71
2021/04/30 12:27:56;;;;;;;10.53;9.73;;;13.50;99.90;;;;;;4956162;28;20465;-72
2021/04/30 12:30:29;;;;;;;9.73;8.80;;;13.60;99.90;;;;;;4955747;29;20833;-72
2021/04/30 12:32:57;;;;;;;10.90;10.20;;;13.70;99.90;;;;;;4956360;29;20559;-71
2021/04/30 12:35:24;;;;;;;10.83;10.03;;;13.70;99.90;;;;;;4957475;29;20489;-71
2021/04/30 12:37:50;;;;;;;9.70;8.97;;;13.80;99.90;;;;;;4960938;29;20504;-71
2021/04/30 12:40:24;;;;;;;11.50;10.63;;;13.90;99.90;;;;;;4958527;29;20464;-70
2021/04/30 12:42:51;;;;;;;10.50;9.80;;;13.90;99.90;;;;;;4955693;28;20476;-71
2021/04/30 12:45:19;;;;;;;10.17;9.47;;;14.00;99.90;;;;;;4954924;29;20520;-71
2021/04/30 12:47:47;;;;;;;11.73;10.73;;;14.00;99.90;;;;;;4954747;29;20464;-70
2021/04/30 12:50:16;;;;;;;11.63;10.63;;;13.90;99.90;;;;;;4955084;29;20476;-70
2021/04/30 12:52:42;;;;;;;11.53;10.73;;;13.80;99.90;;;;;;4955128;29;20461;-70
2021/04/30 12:55:31;;;;;;;10.67;10.03;;;13.50;99.90;;;;;;4955414;29;20473;-74
2021/04/30 12:58:16;;;;;;;10.07;9.40;;;13.50;99.90;;;;;;4955754;28;20472;-72
2021/04/30 13:01:03;;;;;;;12.23;11.33;;;13.20;99.90;;;;;;4956088;29;20600;-73
2021/04/30 13:03:37;;;;;;;11.17;10.27;;;13.00;99.90;;;;;;4955650;29;20472;-73
2021/04/30 13:06:05;;;;;;;11.23;10.43;;;12.90;99.90;;;;;;4955427;28;20960;-73
2021/04/30 13:08:32;;;;;;;11.70;10.70;;;12.80;99.90;;;;;;4955626;28;20468;-73
2021/04/30 13:11:00;;;;;;;12.15;11.05;;;12.80;99.90;;;;;;4955340;29;20496;-72
2021/04/30 13:13:27;;;;;;;12.85;11.85;;;12.80;99.90;;;;;;4956457;29;20209;-73
2021/04/30 13:16:02;;;;;;;11.98;10.98;;;12.80;99.90;;;;;;4955487;28;20638;-74
2021/04/30 13:18:33;;;;;;;13.35;12.32;;;12.80;99.90;;;;;;4955477;29;20213;-72
2021/04/30 13:21:00;;;;;;;12.68;11.68;;;12.70;99.90;;;;;;4955496;29;20801;-73
2021/04/30 13:23:39;;;;;;;13.35;12.15;;;12.80;99.90;;;;;;4955009;29;20232;-73
2021/04/30 13:26:23;;;;;;;12.13;11.23;;;12.80;99.90;;;;;;4954909;29;20562;-73
2021/04/30 13:29:08;;;;;;;12.20;11.20;;;12.80;99.90;;;;;;4954815;29;20209;-73
2021/04/30 13:31:34;;;;;;;13.45;12.18;;;12.70;99.90;;;;;;4953904;28;20228;-73
2021/04/30 13:34:09;;;;;;;13.63;12.27;;;12.70;99.90;;;;;;4954530;29;20244;-73
2021/04/30 13:36:50;;;;;;;12.52;11.55;;;12.70;99.90;;;;;;4954656;29;20681;-73
2021/04/30 13:39:24;;;;;;;13.20;11.93;;;12.90;99.90;;;;;;4954457;28;20556;-72
2021/04/30 13:41:51;;;;;;;12.17;11.20;;;13.10;99.90;;;;;;4954389;29;20546;-72
2021/04/30 13:44:20;;;;;;;12.13;11.17;;;13.20;99.90;;;;;;4953856;28;20469;-71
2021/04/30 13:46:51;;;;;;;12.07;11.20;;;13.20;99.90;;;;;;4954489;28;20539;-71
2021/04/30 13:49:17;;;;;;;12.73;11.63;;;13.30;99.90;;;;;;4954990;29;20515;-70
2021/04/30 13:51:44;;;;;;;12.83;11.73;;;13.40;99.90;;;;;;4954748;29;20503;-71
2021/04/30 13:54:10;;;;;;;12.57;11.60;;;13.40;99.90;;;;;;4954678;29;20468;-71
2021/04/30 13:56:37;;;;;;;12.23;11.23;;;13.40;99.90;;;;;;4954517;29;20803;-70
2021/04/30 13:59:05;;;;;;;11.87;10.97;;;13.50;99.90;;;;;;4954183;29;20511;-69
2021/04/30 14:01:32;;;;;;;12.23;11.23;;;13.70;99.90;;;;;;4953570;29;20500;-68
2021/04/30 14:03:58;;;;;;;11.80;10.90;;;13.90;99.90;;;;;;4953654;29;20476;-69
2021/04/30 14:06:25;;;;;;;14.73;11.23;;;13.90;99.90;;;;;;4953838;28;20516;-69
2021/04/30 14:08:51;;;;;;;12.57;11.57;;;13.90;99.90;;;;;;4953984;29;20483;-70
2021/04/30 14:11:17;;;;;;;11.13;10.37;;;13.90;99.90;;;;;;4954072;29;20982;-69
2021/04/30 14:13:43;;;;;;;12.10;11.30;;;14.00;99.90;;;;;;4953542;29;20468;-69
2021/04/30 14:16:11;;;;;;;12.40;11.40;;;13.90;99.90;;;;;;4953603;29;20492;-69
2021/04/30 14:18:37;;;;;;;11.00;10.20;;;13.70;99.90;;;;;;4953922;29;20472;-69
2021/04/30 14:21:04;;;;;;;11.43;10.57;;;13.80;99.90;;;;;;4954076;29;20511;-69
2021/04/30 14:23:30;;;;;;;10.10;9.40;;;13.80;99.90;;;;;;4954091;29;20524;-69
2021/04/30 14:25:57;;;;;;;10.10;9.40;;;13.80;99.90;;;;;;4953654;29;20467;-70
2021/04/30 14:28:23;;;;;;;10.47;9.67;;;13.60;99.90;;;;;;4953666;29;20571;-70
2021/04/30 14:30:49;;;;;;;10.90;9.90;;;13.60;99.90;;;;;;4953605;29;20499;-70
2021/04/30 14:33:16;;;;;;;10.40;9.40;;;13.60;99.90;;;;;;4953534;29;20952;-70
2021/04/30 14:35:42;;;;;;;9.53;8.87;;;13.60;99.90;;;;;;4953605;29;20495;-70
2021/04/30 14:38:09;;;;;;;10.37;9.60;;;13.50;99.90;;;;;;4953552;29;20492;-69
2021/04/30 14:40:35;;;;;;;10.57;9.87;;;13.40;99.90;;;;;;4953549;29;20531;-70
2021/04/30 14:43:01;;;;;;;10.07;9.33;;;13.40;99.90;;;;;;4955417;28;20468;-70
2021/04/30 14:45:27;;;;;;;10.10;9.40;;;13.50;99.90;;;;;;4957099;29;20908;-70
2021/04/30 14:47:54;;;;;;;9.40;8.80;;;13.50;99.90;;;;;;4956951;29;20560;-70
2021/04/30 14:50:21;;;;;;;9.70;9.03;;;13.40;99.90;;;;;;4956941;29;20468;-70
2021/04/30 14:52:47;;;;;;;10.23;9.40;;;13.40;99.90;;;;;;4957079;29;20543;-69
2021/04/30 14:55:13;;;;;;;9.87;8.97;;;13.20;99.90;;;;;;4956939;29;20973;-69
2021/04/30 14:57:40;;;;;;;9.43;8.77;;;13.20;99.90;;;;;;4957241;29;20948;-70
2021/04/30 15:00:07;;;;;;;8.93;8.13;;;13.30;99.90;;;;;;4956572;29;20874;-71
2021/04/30 15:02:34;;;;;;;9.67;9.00;;;13.30;99.90;;;;;;4957301;28;20476;-70
2021/04/30 15:05:00;;;;;;;9.27;8.57;;;13.30;99.90;;;;;;4956949;29;20476;-70
2021/04/30 15:07:27;;;;;;;10.60;9.70;;;13.30;99.90;;;;;;4957193;28;20504;-69
2021/04/30 15:09:56;;;;;;;10.13;9.38;;;13.30;99.90;;;;;;4956747;29;20460;-69
2021/04/30 15:12:22;;;;;;;10.47;9.60;;;13.30;99.90;;;;;;4956536;29;20316;-70
2021/04/30 15:14:49;;;;;;;9.40;8.70;;;13.20;99.90;;;;;;4956475;29;20464;-70
2021/04/30 15:17:15;;;;;;;9.50;8.80;;;13.10;99.90;;;;;;4956337;28;20868;-70
2021/04/30 15:19:41;;;;;;;10.27;9.27;;;13.00;99.90;;;;;;4957026;29;20209;-70
2021/04/30 15:22:07;;;;;;;10.00;9.20;;;13.00;99.90;;;;;;4957135;29;20555;-70
2021/04/30 15:24:34;;;;;;;9.75;8.98;;;12.90;99.90;;;;;;4956660;29;20826;-70
2021/04/30 15:27:01;;;;;;;10.70;9.88;;;12.90;99.90;;;;;;4956589;29;20205;-70
2021/04/30 15:29:28;;;;;;;9.80;8.77;;;12.90;99.90;;;;;;4956307;29;20611;-70
2021/04/30 15:31:54;;;;;;;9.02;8.40;;;12.80;99.90;;;;;;4956513;29;20264;-70
2021/04/30 15:34:20;;;;;;;9.40;8.80;;;12.80;99.90;;;;;;4956378;29;20217;-70
2021/04/30 15:36:46;;;;;;;10.68;9.77;;;12.80;99.90;;;;;;4956239;29;20276;-70
2021/04/30 15:39:12;;;;;;;9.77;9.07;;;12.70;99.90;;;;;;4956555;29;20216;-70
2021/04/30 15:41:43;;;;;;;10.43;9.57;;;12.70;99.90;;;;;;4956411;29;20232;-70
2021/04/30 15:44:09;;;;;;;11.02;10.02;;;12.60;99.90;;;;;;4955882;29;20257;-70
2021/04/30 15:46:35;;;;;;;11.52;10.63;;;12.60;99.90;;;;;;4955691;28;20686;-70
2021/04/30 15:49:01;;;;;;;11.15;10.25;;;12.60;99.90;;;;;;4956385;29;20236;-69
2021/04/30 15:51:28;;;;;;;11.90;10.90;;;12.60;99.90;;;;;;4956341;29;20237;-70
2021/04/30 15:53:54;;;;;;;9.98;9.20;;;12.60;99.90;;;;;;4955364;28;20682;-69
2021/04/30 15:56:20;;;;;;;10.77;9.88;;;12.50;99.90;;;;;;4956681;29;20225;-70
2021/04/30 15:58:47;;;;;;;11.05;10.15;;;12.50;99.90;;;;;;4957298;29;20249;-70
2021/04/30 16:01:13;;;;;;;10.75;9.95;;;12.50;99.90;;;;;;4956403;29;20693;-71
2021/04/30 16:03:39;;;;;;;10.98;10.00;;;12.50;99.90;;;;;;4958428;29;20228;-70
2021/04/30 16:06:06;;;;;;;10.40;9.60;;;12.40;99.90;;;;;;4958630;28;20220;-73
2021/04/30 16:08:33;;;;;;;11.23;10.32;;;12.30;99.90;;;;;;4956954;29;20224;-73
2021/04/30 16:10:59;;;;;;;16.23;10.30;;;12.30;99.90;;;;;;4956983;29;20233;-69
2021/04/30 16:13:25;;;;;;;10.27;9.48;;;12.10;99.90;;;;;;4955131;29;20289;-69
2021/04/30 16:15:52;;;;;;;9.18;8.35;;;12.00;99.90;;;;;;4954798;29;20567;-69
2021/04/30 16:18:21;;;;;;;10.52;9.68;;;11.90;99.90;;;;;;4955462;29;20197;-69
2021/04/30 16:20:48;;;;;;;11.00;9.93;;;11.90;99.90;;;;;;4955662;29;20241;-69
2021/04/30 16:23:14;;;;;;;11.05;10.25;;;11.80;99.90;;;;;;4955360;29;20216;-69
2021/04/30 16:25:40;;;;;;;10.88;9.90;;;11.80;99.90;;;;;;4955448;29;20212;-69
2021/04/30 16:28:07;;;;;;;10.73;9.90;;;11.80;99.90;;;;;;4954814;29;20589;-70
2021/04/30 16:30:34;;;;;;;11.13;10.18;;;11.70;99.90;;;;;;4955247;29;20261;-73
2021/04/30 16:33:01;;;;;;;10.30;9.45;;;11.70;99.90;;;;;;4954965;29;20224;-72
2021/04/30 16:35:27;;;;;;;11.27;10.43;;;11.70;99.90;;;;;;4955591;29;20236;-72
2021/04/30 16:37:53;;;;;;;11.07;9.98;;;11.70;99.90;;;;;;4955520;29;20220;-71
2021/04/30 16:40:20;;;;;;;11.45;10.45;;;11.60;99.90;;;;;;4956141;29;20224;-73
2021/04/30 16:42:46;;;;;;;10.32;9.50;;;11.60;99.90;;;;;;4957831;29;20223;-73